sensor_id;sensor_type;location;lat;lon;timestamp;pressure;altitude;pressure_sealevel;temperature;humidity
76794;BME280;65745;50.278;18.192;2023-06-22T00:00:29;99840.92;;;20.92;76.80
76794;BME280;65745;50.278;18.192;2023-06-22T00:03:23;99840.52;;;20.94;77.73
76794;BME280;65745;50.278;18.192;2023-06-22T00:05:56;99843.28;;;20.89;77.51
76794;BME280;65745;50.278;18.192;2023-06-22T00:08:28;99843.17;;;20.86;77.55
76794;BME280;65745;50.278;18.192;2023-06-22T00:11:01;99845.02;;;20.89;77.17
76794;BME280;65745;50.278;18.192;2023-06-22T00:13:33;99841.90;;;20.96;76.98
76794;BME280;65745;50.278;18.192;2023-06-22T00:16:06;99843.16;;;21.01;76.52
76794;BME280;65745;50.278;18.192;2023-06-22T00:18:38;99844.43;;;20.99;76.51
76794;BME280;65745;50.278;18.192;2023-06-22T00:21:10;99839.83;;;20.94;77.35
76794;BME280;65745;50.278;18.192;2023-06-22T00:23:43;99836.02;;;20.77;78.12
76794;BME280;65745;50.278;18.192;2023-06-22T00:26:16;99838.63;;;20.70;77.79
76794;BME280;65745;50.278;18.192;2023-06-22T00:28:48;99834.02;;;20.73;77.58
76794;BME280;65745;50.278;18.192;2023-06-22T00:31:21;99839.85;;;20.70;77.59
76794;BME280;65745;50.278;18.192;2023-06-22T00:33:53;99844.29;;;20.67;78.55
76794;BME280;65745;50.278;18.192;2023-06-22T00:36:26;99843.43;;;20.58;78.67
76794;BME280;65745;50.278;18.192;2023-06-22T00:38:58;99842.64;;;20.47;80.33
76794;BME280;65745;50.278;18.192;2023-06-22T00:41:32;99845.66;;;20.44;78.72
76794;BME280;65745;50.278;18.192;2023-06-22T00:44:05;99845.82;;;20.45;78.29
76794;BME280;65745;50.278;18.192;2023-06-22T00:46:39;99843.53;;;20.46;78.56
76794;BME280;65745;50.278;18.192;2023-06-22T00:49:12;99840.98;;;20.42;78.09
76794;BME280;65745;50.278;18.192;2023-06-22T00:51:44;99840.00;;;20.47;77.95
76794;BME280;65745;50.278;18.192;2023-06-22T00:54:19;99846.38;;;20.52;78.16
76794;BME280;65745;50.278;18.192;2023-06-22T00:56:57;99847.67;;;20.48;78.99
76794;BME280;65745;50.278;18.192;2023-06-22T00:59:31;99842.45;;;20.40;78.06
76794;BME280;65745;50.278;18.192;2023-06-22T01:02:06;99843.27;;;20.42;77.81
76794;BME280;65745;50.278;18.192;2023-06-22T01:04:40;99845.58;;;20.40;77.86
76794;BME280;65745;50.278;18.192;2023-06-22T01:07:19;99846.98;;;20.40;77.99
76794;BME280;65745;50.278;18.192;2023-06-22T01:09:59;99848.52;;;20.42;77.93
76794;BME280;65745;50.278;18.192;2023-06-22T01:12:38;99854.89;;;20.47;78.38
76794;BME280;65745;50.278;18.192;2023-06-22T01:15:13;99854.83;;;20.42;78.67
76794;BME280;65745;50.278;18.192;2023-06-22T01:17:49;99852.04;;;20.41;78.47
76794;BME280;65745;50.278;18.192;2023-06-22T01:20:23;99855.92;;;20.47;78.37
76794;BME280;65745;50.278;18.192;2023-06-22T01:23:15;99857.20;;;20.54;78.01
76794;BME280;65745;50.278;18.192;2023-06-22T01:26:01;99864.59;;;20.60;78.13
76794;BME280;65745;50.278;18.192;2023-06-22T01:28:47;99867.38;;;20.68;77.98
76794;BME280;65745;50.278;18.192;2023-06-22T01:31:22;99859.11;;;20.69;78.11
76794;BME280;65745;50.278;18.192;2023-06-22T01:33:59;99861.46;;;20.74;78.20
76794;BME280;65745;50.278;18.192;2023-06-22T01:36:33;99861.97;;;20.75;78.09
76794;BME280;65745;50.278;18.192;2023-06-22T01:39:07;99864.62;;;20.74;78.44
76794;BME280;65745;50.278;18.192;2023-06-22T01:41:39;99868.29;;;20.74;78.19
76794;BME280;65745;50.278;18.192;2023-06-22T01:44:14;99868.64;;;20.73;78.48
76794;BME280;65745;50.278;18.192;2023-06-22T01:46:47;99873.02;;;20.74;78.18
76794;BME280;65745;50.278;18.192;2023-06-22T01:49:24;99872.81;;;20.76;78.67
76794;BME280;65745;50.278;18.192;2023-06-22T01:51:57;99873.36;;;20.74;78.68
76794;BME280;65745;50.278;18.192;2023-06-22T01:54:32;99876.70;;;20.74;78.40
76794;BME280;65745;50.278;18.192;2023-06-22T01:57:05;99876.73;;;20.72;78.44
76794;BME280;65745;50.278;18.192;2023-06-22T01:59:42;99880.77;;;20.72;78.34
76794;BME280;65745;50.278;18.192;2023-06-22T02:02:21;99883.65;;;20.69;78.33
76794;BME280;65745;50.278;18.192;2023-06-22T02:05:01;99887.59;;;20.64;78.49
76794;BME280;65745;50.278;18.192;2023-06-22T02:07:41;99888.88;;;20.61;78.53
76794;BME280;65745;50.278;18.192;2023-06-22T02:10:15;99889.09;;;20.60;79.50
76794;BME280;65745;50.278;18.192;2023-06-22T02:12:49;99889.13;;;20.58;79.60
76794;BME280;65745;50.278;18.192;2023-06-22T02:15:22;99889.89;;;20.55;78.96
76794;BME280;65745;50.278;18.192;2023-06-22T02:17:56;99901.83;;;20.53;79.02
76794;BME280;65745;50.278;18.192;2023-06-22T02:20:29;99910.61;;;20.52;79.06
76794;BME280;65745;50.278;18.192;2023-06-22T02:23:01;99914.25;;;20.53;79.63
76794;BME280;65745;50.278;18.192;2023-06-22T02:25:34;99911.61;;;20.53;79.33
76794;BME280;65745;50.278;18.192;2023-06-22T02:28:07;99913.23;;;20.52;79.59
76794;BME280;65745;50.278;18.192;2023-06-22T02:30:41;99913.89;;;20.53;79.48
76794;BME280;65745;50.278;18.192;2023-06-22T02:33:13;99916.67;;;20.55;79.58
76794;BME280;65745;50.278;18.192;2023-06-22T02:35:46;99921.23;;;20.54;79.82
76794;BME280;65745;50.278;18.192;2023-06-22T02:38:20;99924.20;;;20.55;80.18
76794;BME280;65745;50.278;18.192;2023-06-22T02:40:55;99927.17;;;20.55;80.08
76794;BME280;65745;50.278;18.192;2023-06-22T02:43:28;99925.24;;;20.55;80.17
76794;BME280;65745;50.278;18.192;2023-06-22T02:46:00;99927.54;;;20.54;80.63
76794;BME280;65745;50.278;18.192;2023-06-22T02:48:33;99924.52;;;20.56;80.09
76794;BME280;65745;50.278;18.192;2023-06-22T02:51:05;99928.33;;;20.58;79.96
76794;BME280;65745;50.278;18.192;2023-06-22T02:53:38;99926.20;;;20.60;79.99
76794;BME280;65745;50.278;18.192;2023-06-22T02:56:11;99928.39;;;20.64;79.95
76794;BME280;65745;50.278;18.192;2023-06-22T02:58:43;99930.80;;;20.66;80.07
76794;BME280;65745;50.278;18.192;2023-06-22T03:01:16;99933.63;;;20.65;80.44
76794;BME280;65745;50.278;18.192;2023-06-22T03:03:54;99940.27;;;20.64;79.83
76794;BME280;65745;50.278;18.192;2023-06-22T03:06:27;99941.67;;;20.64;79.93
76794;BME280;65745;50.278;18.192;2023-06-22T03:09:02;99937.83;;;20.65;79.71
76794;BME280;65745;50.278;18.192;2023-06-22T03:11:36;99936.37;;;20.67;79.75
76794;BME280;65745;50.278;18.192;2023-06-22T03:14:08;99931.42;;;20.69;79.83
76794;BME280;65745;50.278;18.192;2023-06-22T03:16:41;99931.39;;;20.71;80.05
76794;BME280;65745;50.278;18.192;2023-06-22T03:19:13;99929.20;;;20.75;79.87
76794;BME280;65745;50.278;18.192;2023-06-22T03:21:45;99935.34;;;20.74;79.82
76794;BME280;65745;50.278;18.192;2023-06-22T03:24:18;99940.89;;;20.77;79.61
76794;BME280;65745;50.278;18.192;2023-06-22T03:26:51;99941.73;;;20.78;79.50
76794;BME280;65745;50.278;18.192;2023-06-22T03:29:24;99945.59;;;20.78;79.63
76794;BME280;65745;50.278;18.192;2023-06-22T03:32:01;99947.69;;;20.78;79.48
76794;BME280;65745;50.278;18.192;2023-06-22T03:34:33;99947.83;;;20.80;79.52
76794;BME280;65745;50.278;18.192;2023-06-22T03:37:08;99953.54;;;20.75;80.52
76794;BME280;65745;50.278;18.192;2023-06-22T03:39:40;99952.39;;;20.80;79.94
76794;BME280;65745;50.278;18.192;2023-06-22T03:42:12;99957.52;;;20.85;79.87
76794;BME280;65745;50.278;18.192;2023-06-22T03:44:44;99959.05;;;20.88;79.76
76794;BME280;65745;50.278;18.192;2023-06-22T03:47:17;99953.89;;;20.92;79.58
76794;BME280;65745;50.278;18.192;2023-06-22T03:49:49;99949.94;;;20.96;79.64
76794;BME280;65745;50.278;18.192;2023-06-22T03:52:25;99952.48;;;21.00;79.50
76794;BME280;65745;50.278;18.192;2023-06-22T03:54:58;99953.57;;;21.07;79.56
76794;BME280;65745;50.278;18.192;2023-06-22T03:57:30;99952.42;;;21.11;78.99
76794;BME280;65745;50.278;18.192;2023-06-22T04:00:02;99962.86;;;21.14;79.15
76794;BME280;65745;50.278;18.192;2023-06-22T04:02:41;99963.08;;;21.21;78.88
76794;BME280;65745;50.278;18.192;2023-06-22T04:05:14;99967.96;;;21.23;78.99
76794;BME280;65745;50.278;18.192;2023-06-22T04:07:48;99974.00;;;21.26;79.26
76794;BME280;65745;50.278;18.192;2023-06-22T04:10:20;99976.70;;;21.31;78.74
76794;BME280;65745;50.278;18.192;2023-06-22T04:12:52;99974.72;;;21.34;78.58
76794;BME280;65745;50.278;18.192;2023-06-22T04:15:25;99974.02;;;21.34;78.62
76794;BME280;65745;50.278;18.192;2023-06-22T04:17:57;99978.57;;;21.34;78.77
76794;BME280;65745;50.278;18.192;2023-06-22T04:20:30;99986.76;;;21.36;78.71
76794;BME280;65745;50.278;18.192;2023-06-22T04:23:03;99996.00;;;21.38;78.61
76794;BME280;65745;50.278;18.192;2023-06-22T04:25:36;100000.02;;;21.39;78.59
76794;BME280;65745;50.278;18.192;2023-06-22T04:28:08;99997.58;;;21.38;78.74
76794;BME280;65745;50.278;18.192;2023-06-22T04:30:43;99999.13;;;21.39;78.87
76794;BME280;65745;50.278;18.192;2023-06-22T04:33:18;99998.56;;;21.41;78.74
76794;BME280;65745;50.278;18.192;2023-06-22T04:35:50;99999.63;;;21.40;78.93
76794;BME280;65745;50.278;18.192;2023-06-22T04:38:22;100005.23;;;21.40;79.17
76794;BME280;65745;50.278;18.192;2023-06-22T04:40:55;100004.02;;;21.47;78.89
76794;BME280;65745;50.278;18.192;2023-06-22T04:43:27;100001.42;;;21.53;78.77
76794;BME280;65745;50.278;18.192;2023-06-22T04:46:01;100008.12;;;21.59;78.69
76794;BME280;65745;50.278;18.192;2023-06-22T04:48:34;100010.13;;;21.64;78.65
76794;BME280;65745;50.278;18.192;2023-06-22T04:51:07;100009.94;;;21.72;78.48
76794;BME280;65745;50.278;18.192;2023-06-22T04:53:39;100008.77;;;21.84;78.32
76794;BME280;65745;50.278;18.192;2023-06-22T04:56:12;100010.23;;;21.96;78.14
76794;BME280;65745;50.278;18.192;2023-06-22T04:58:46;100013.00;;;22.05;77.86
76794;BME280;65745;50.278;18.192;2023-06-22T05:01:19;100012.02;;;22.16;77.55
76794;BME280;65745;50.278;18.192;2023-06-22T05:03:53;100013.95;;;22.23;77.21
76794;BME280;65745;50.278;18.192;2023-06-22T05:06:28;100010.73;;;22.31;77.28
76794;BME280;65745;50.278;18.192;2023-06-22T05:09:00;100009.29;;;22.40;76.88
76794;BME280;65745;50.278;18.192;2023-06-22T05:11:34;100009.38;;;22.50;76.52
76794;BME280;65745;50.278;18.192;2023-06-22T05:14:06;100007.95;;;22.57;76.38
76794;BME280;65745;50.278;18.192;2023-06-22T05:16:39;100008.90;;;22.67;75.94
76794;BME280;65745;50.278;18.192;2023-06-22T05:19:11;100010.76;;;22.77;75.83
76794;BME280;65745;50.278;18.192;2023-06-22T05:21:44;100010.54;;;22.85;75.58
76794;BME280;65745;50.278;18.192;2023-06-22T05:24:16;100005.92;;;22.93;75.37
76794;BME280;65745;50.278;18.192;2023-06-22T05:26:48;100007.09;;;23.01;75.18
76794;BME280;65745;50.278;18.192;2023-06-22T05:29:21;100006.48;;;23.10;74.95
76794;BME280;65745;50.278;18.192;2023-06-22T05:31:54;100008.91;;;23.17;74.63
76794;BME280;65745;50.278;18.192;2023-06-22T05:34:27;100002.54;;;23.23;74.37
76794;BME280;65745;50.278;18.192;2023-06-22T05:36:59;100001.69;;;23.35;74.08
76794;BME280;65745;50.278;18.192;2023-06-22T05:39:32;100005.52;;;23.41;73.99
76794;BME280;65745;50.278;18.192;2023-06-22T05:42:07;100011.09;;;23.49;73.50
76794;BME280;65745;50.278;18.192;2023-06-22T05:44:41;100011.22;;;23.57;73.04
76794;BME280;65745;50.278;18.192;2023-06-22T05:47:13;100012.73;;;23.65;73.08
76794;BME280;65745;50.278;18.192;2023-06-22T05:49:45;100009.06;;;23.74;72.96
76794;BME280;65745;50.278;18.192;2023-06-22T05:52:18;100014.91;;;23.84;72.63
76794;BME280;65745;50.278;18.192;2023-06-22T05:54:50;100020.47;;;23.87;72.39
76794;BME280;65745;50.278;18.192;2023-06-22T05:57:23;100014.86;;;23.96;71.94
76794;BME280;65745;50.278;18.192;2023-06-22T05:59:55;100014.08;;;24.03;71.95
76794;BME280;65745;50.278;18.192;2023-06-22T06:02:27;100011.30;;;24.13;71.76
76794;BME280;65745;50.278;18.192;2023-06-22T06:05:00;100016.73;;;24.21;70.89
76794;BME280;65745;50.278;18.192;2023-06-22T06:07:34;100022.10;;;24.33;71.29
76794;BME280;65745;50.278;18.192;2023-06-22T06:10:07;100025.73;;;24.45;71.08
76794;BME280;65745;50.278;18.192;2023-06-22T06:12:40;100027.84;;;24.60;70.76
76794;BME280;65745;50.278;18.192;2023-06-22T06:15:13;100028.52;;;24.76;70.15
76794;BME280;65745;50.278;18.192;2023-06-22T06:17:48;100021.16;;;24.89;69.51
76794;BME280;65745;50.278;18.192;2023-06-22T06:20:23;100020.68;;;25.02;69.24
76794;BME280;65745;50.278;18.192;2023-06-22T06:22:56;100028.59;;;25.13;68.53
76794;BME280;65745;50.278;18.192;2023-06-22T06:25:29;100030.48;;;25.23;68.05
76794;BME280;65745;50.278;18.192;2023-06-22T06:28:01;100026.96;;;25.32;66.91
76794;BME280;65745;50.278;18.192;2023-06-22T06:30:34;100029.05;;;25.37;65.66
76794;BME280;65745;50.278;18.192;2023-06-22T06:33:08;100030.96;;;25.43;65.21
76794;BME280;65745;50.278;18.192;2023-06-22T06:35:40;100034.23;;;25.49;64.97
76794;BME280;65745;50.278;18.192;2023-06-22T06:38:12;100032.27;;;25.55;64.74
76794;BME280;65745;50.278;18.192;2023-06-22T06:40:45;100028.98;;;25.62;64.51
76794;BME280;65745;50.278;18.192;2023-06-22T06:43:19;100029.27;;;25.72;64.43
76794;BME280;65745;50.278;18.192;2023-06-22T06:45:52;100028.75;;;25.81;63.42
76794;BME280;65745;50.278;18.192;2023-06-22T06:48:24;100032.40;;;25.91;63.51
76794;BME280;65745;50.278;18.192;2023-06-22T06:50:57;100032.75;;;26.00;63.25
76794;BME280;65745;50.278;18.192;2023-06-22T06:53:29;100035.31;;;26.10;62.89
76794;BME280;65745;50.278;18.192;2023-06-22T06:56:01;100031.45;;;26.23;62.29
76794;BME280;65745;50.278;18.192;2023-06-22T06:58:34;100024.83;;;26.33;61.99
76794;BME280;65745;50.278;18.192;2023-06-22T07:01:07;100022.72;;;26.41;60.56
76794;BME280;65745;50.278;18.192;2023-06-22T07:03:40;100018.45;;;26.46;59.79
76794;BME280;65745;50.278;18.192;2023-06-22T07:06:13;100022.60;;;26.48;59.52
76794;BME280;65745;50.278;18.192;2023-06-22T07:08:45;100023.41;;;26.54;60.08
76794;BME280;65745;50.278;18.192;2023-06-22T07:11:17;100028.14;;;26.63;60.51
76794;BME280;65745;50.278;18.192;2023-06-22T07:13:49;100027.21;;;26.76;60.34
76794;BME280;65745;50.278;18.192;2023-06-22T07:16:22;100024.85;;;26.86;59.53
76794;BME280;65745;50.278;18.192;2023-06-22T07:18:56;100030.50;;;26.93;59.35
76794;BME280;65745;50.278;18.192;2023-06-22T07:21:28;100033.92;;;27.04;59.70
76794;BME280;65745;50.278;18.192;2023-06-22T07:24:00;100032.79;;;27.17;58.86
76794;BME280;65745;50.278;18.192;2023-06-22T07:26:33;100032.29;;;27.24;58.04
76794;BME280;65745;50.278;18.192;2023-06-22T07:29:05;100032.42;;;27.28;57.84
76794;BME280;65745;50.278;18.192;2023-06-22T07:31:37;100033.09;;;27.37;58.07
76794;BME280;65745;50.278;18.192;2023-06-22T07:34:12;100034.05;;;27.46;57.56
76794;BME280;65745;50.278;18.192;2023-06-22T07:36:44;100037.00;;;27.52;56.66
76794;BME280;65745;50.278;18.192;2023-06-22T07:39:17;100040.41;;;27.55;56.47
76794;BME280;65745;50.278;18.192;2023-06-22T07:41:49;100042.13;;;27.60;56.94
76794;BME280;65745;50.278;18.192;2023-06-22T07:44:22;100045.45;;;27.68;56.59
76794;BME280;65745;50.278;18.192;2023-06-22T07:46:54;100052.86;;;27.75;56.53
76794;BME280;65745;50.278;18.192;2023-06-22T07:49:27;100053.04;;;27.90;56.65
76794;BME280;65745;50.278;18.192;2023-06-22T07:52:00;100054.02;;;28.06;56.57
76794;BME280;65745;50.278;18.192;2023-06-22T07:54:36;100052.70;;;28.18;56.36
76794;BME280;65745;50.278;18.192;2023-06-22T07:57:08;100059.45;;;28.33;55.94
76794;BME280;65745;50.278;18.192;2023-06-22T07:59:41;100065.45;;;28.44;55.50
76794;BME280;65745;50.278;18.192;2023-06-22T08:02:13;100067.17;;;28.58;55.09
76794;BME280;65745;50.278;18.192;2023-06-22T08:04:45;100068.13;;;28.71;54.55
76794;BME280;65745;50.278;18.192;2023-06-22T08:07:18;100061.92;;;28.74;53.54
76794;BME280;65745;50.278;18.192;2023-06-22T08:09:51;100065.27;;;28.78;53.71
76794;BME280;65745;50.278;18.192;2023-06-22T08:12:23;100065.92;;;28.79;53.52
76794;BME280;65745;50.278;18.192;2023-06-22T08:14:55;100066.83;;;28.92;52.84
76794;BME280;65745;50.278;18.192;2023-06-22T08:17:28;100059.75;;;29.05;51.87
76794;BME280;65745;50.278;18.192;2023-06-22T08:20:02;100064.11;;;29.16;52.05
76794;BME280;65745;50.278;18.192;2023-06-22T08:22:40;100064.66;;;29.26;52.30
76794;BME280;65745;50.278;18.192;2023-06-22T08:25:13;100065.45;;;29.41;51.04
76794;BME280;65745;50.278;18.192;2023-06-22T08:27:47;100057.56;;;29.49;49.77
76794;BME280;65745;50.278;18.192;2023-06-22T08:30:20;100059.54;;;29.45;51.37
76794;BME280;65745;50.278;18.192;2023-06-22T08:32:52;100060.77;;;29.61;50.15
76794;BME280;65745;50.278;18.192;2023-06-22T08:35:26;100063.46;;;29.76;49.51
76794;BME280;65745;50.278;18.192;2023-06-22T08:37:59;100062.67;;;29.94;49.03
76794;BME280;65745;50.278;18.192;2023-06-22T08:40:33;100058.74;;;30.04;49.81
76794;BME280;65745;50.278;18.192;2023-06-22T08:43:05;100055.11;;;30.20;49.57
76794;BME280;65745;50.278;18.192;2023-06-22T08:45:37;100048.64;;;30.30;49.13
76794;BME280;65745;50.278;18.192;2023-06-22T08:48:11;100041.14;;;30.40;48.99
76794;BME280;65745;50.278;18.192;2023-06-22T08:50:43;100038.88;;;30.54;47.85
76794;BME280;65745;50.278;18.192;2023-06-22T08:53:16;100036.55;;;30.66;47.45
76794;BME280;65745;50.278;18.192;2023-06-22T08:55:48;100039.98;;;30.77;48.01
76794;BME280;65745;50.278;18.192;2023-06-22T08:58:21;100040.63;;;30.84;47.61
76794;BME280;65745;50.278;18.192;2023-06-22T09:00:55;100035.20;;;30.94;46.22
76794;BME280;65745;50.278;18.192;2023-06-22T09:03:27;100037.26;;;31.10;46.76
76794;BME280;65745;50.278;18.192;2023-06-22T09:06:00;100042.87;;;31.25;47.04
76794;BME280;65745;50.278;18.192;2023-06-22T09:08:33;100041.21;;;31.40;46.32
76794;BME280;65745;50.278;18.192;2023-06-22T09:11:05;100038.14;;;31.57;45.98
76794;BME280;65745;50.278;18.192;2023-06-22T09:13:37;100026.42;;;31.65;45.70
76794;BME280;65745;50.278;18.192;2023-06-22T09:16:10;100014.98;;;31.71;45.05
76794;BME280;65745;50.278;18.192;2023-06-22T09:18:45;100015.70;;;31.79;44.42
76794;BME280;65745;50.278;18.192;2023-06-22T09:21:19;100012.92;;;31.70;44.50
76794;BME280;65745;50.278;18.192;2023-06-22T09:23:51;100010.86;;;31.63;44.84
76794;BME280;65745;50.278;18.192;2023-06-22T09:26:24;100006.63;;;31.71;44.59
76794;BME280;65745;50.278;18.192;2023-06-22T09:28:56;100009.15;;;31.71;43.52
76794;BME280;65745;50.278;18.192;2023-06-22T09:31:29;100002.52;;;31.82;44.22
76794;BME280;65745;50.278;18.192;2023-06-22T09:34:01;99998.67;;;31.97;43.70
76794;BME280;65745;50.278;18.192;2023-06-22T09:36:34;99997.41;;;32.13;43.96
76794;BME280;65745;50.278;18.192;2023-06-22T09:39:06;99996.06;;;32.35;43.19
76794;BME280;65745;50.278;18.192;2023-06-22T09:41:38;99990.60;;;32.55;42.00
76794;BME280;65745;50.278;18.192;2023-06-22T09:44:10;99988.88;;;32.70;41.99
76794;BME280;65745;50.278;18.192;2023-06-22T09:46:43;99983.96;;;32.88;41.91
76794;BME280;65745;50.278;18.192;2023-06-22T09:49:15;99984.05;;;33.07;40.08
76794;BME280;65745;50.278;18.192;2023-06-22T09:51:47;99987.06;;;33.20;40.41
76794;BME280;65745;50.278;18.192;2023-06-22T09:54:20;99988.30;;;33.33;39.60
76794;BME280;65745;50.278;18.192;2023-06-22T09:56:52;99988.83;;;33.30;39.46
76794;BME280;65745;50.278;18.192;2023-06-22T09:59:26;99986.80;;;33.36;38.27
76794;BME280;65745;50.278;18.192;2023-06-22T10:02:00;99990.16;;;33.46;38.28
76794;BME280;65745;50.278;18.192;2023-06-22T10:04:33;99989.71;;;33.55;38.59
76794;BME280;65745;50.278;18.192;2023-06-22T10:07:06;99990.07;;;33.69;38.78
76794;BME280;65745;50.278;18.192;2023-06-22T10:09:39;99990.44;;;33.79;38.58
76794;BME280;65745;50.278;18.192;2023-06-22T10:12:11;99985.29;;;33.90;37.68
76794;BME280;65745;50.278;18.192;2023-06-22T10:14:43;99984.33;;;34.02;37.05
76794;BME280;65745;50.278;18.192;2023-06-22T10:17:16;99979.75;;;34.13;37.28
76794;BME280;65745;50.278;18.192;2023-06-22T10:19:49;99981.31;;;34.26;37.96
76794;BME280;65745;50.278;18.192;2023-06-22T10:22:21;99978.73;;;34.54;38.10
76794;BME280;65745;50.278;18.192;2023-06-22T10:24:53;99977.77;;;34.82;38.51
76794;BME280;65745;50.278;18.192;2023-06-22T10:27:26;99977.25;;;35.03;36.50
76794;BME280;65745;50.278;18.192;2023-06-22T10:29:58;99976.03;;;35.18;36.31
76794;BME280;65745;50.278;18.192;2023-06-22T10:32:30;99977.20;;;35.29;35.11
76794;BME280;65745;50.278;18.192;2023-06-22T10:35:02;99972.75;;;35.34;34.01
76794;BME280;65745;50.278;18.192;2023-06-22T10:37:35;99971.38;;;35.48;34.27
76794;BME280;65745;50.278;18.192;2023-06-22T10:40:21;99975.73;;;35.78;34.41
76794;BME280;65745;50.278;18.192;2023-06-22T10:42:53;99977.56;;;36.09;33.53
76794;BME280;65745;50.278;18.192;2023-06-22T10:45:26;99974.85;;;36.43;33.82
76794;BME280;65745;50.278;18.192;2023-06-22T10:48:00;99968.63;;;36.68;31.61
76794;BME280;65745;50.278;18.192;2023-06-22T10:50:33;99970.30;;;36.77;31.61
76794;BME280;65745;50.278;18.192;2023-06-22T10:53:05;99963.63;;;36.61;32.57
76794;BME280;65745;50.278;18.192;2023-06-22T10:55:37;99965.20;;;36.22;32.27
76794;BME280;65745;50.278;18.192;2023-06-22T10:58:25;99961.94;;;36.18;31.47
76794;BME280;65745;50.278;18.192;2023-06-22T11:00:58;99962.56;;;36.44;32.34
76794;BME280;65745;50.278;18.192;2023-06-22T11:03:31;99957.27;;;36.59;31.88
76794;BME280;65745;50.278;18.192;2023-06-22T11:06:03;99956.35;;;36.62;30.38
76794;BME280;65745;50.278;18.192;2023-06-22T11:08:36;99962.56;;;36.32;30.39
76794;BME280;65745;50.278;18.192;2023-06-22T11:11:09;99959.59;;;36.33;31.46
76794;BME280;65745;50.278;18.192;2023-06-22T11:13:41;99955.32;;;36.38;31.88
76794;BME280;65745;50.278;18.192;2023-06-22T11:16:14;99952.09;;;36.59;30.85
76794;BME280;65745;50.278;18.192;2023-06-22T11:18:46;99944.21;;;36.68;31.20
76794;BME280;65745;50.278;18.192;2023-06-22T11:21:19;99942.93;;;36.63;31.25
76794;BME280;65745;50.278;18.192;2023-06-22T11:23:52;99942.82;;;36.63;31.12
76794;BME280;65745;50.278;18.192;2023-06-22T11:26:25;99938.13;;;36.63;31.62
76794;BME280;65745;50.278;18.192;2023-06-22T11:28:58;99930.17;;;36.88;31.46
76794;BME280;65745;50.278;18.192;2023-06-22T11:31:31;99926.43;;;37.05;30.98
76794;BME280;65745;50.278;18.192;2023-06-22T11:34:04;99926.83;;;37.09;30.76
76794;BME280;65745;50.278;18.192;2023-06-22T11:36:37;99926.26;;;37.22;30.63
76794;BME280;65745;50.278;18.192;2023-06-22T11:39:09;99921.59;;;37.55;30.97
76794;BME280;65745;50.278;18.192;2023-06-22T11:41:42;99917.92;;;37.88;30.37
76794;BME280;65745;50.278;18.192;2023-06-22T11:44:14;99915.13;;;38.16;29.43
76794;BME280;65745;50.278;18.192;2023-06-22T11:46:47;99911.29;;;37.99;29.28
76794;BME280;65745;50.278;18.192;2023-06-22T11:49:19;99905.30;;;37.96;29.58
76794;BME280;65745;50.278;18.192;2023-06-22T11:51:51;99910.04;;;38.04;29.32
76794;BME280;65745;50.278;18.192;2023-06-22T11:54:24;99901.14;;;38.21;29.20
76794;BME280;65745;50.278;18.192;2023-06-22T11:56:56;99897.33;;;38.06;28.85
76794;BME280;65745;50.278;18.192;2023-06-22T11:59:28;99896.94;;;37.78;29.25
76794;BME280;65745;50.278;18.192;2023-06-22T12:02:00;99892.67;;;37.85;28.20
76794;BME280;65745;50.278;18.192;2023-06-22T12:04:33;99887.59;;;38.27;29.03
76794;BME280;65745;50.278;18.192;2023-06-22T12:07:06;99884.27;;;38.15;28.79
76794;BME280;65745;50.278;18.192;2023-06-22T12:09:38;99882.38;;;38.24;29.15
76794;BME280;65745;50.278;18.192;2023-06-22T12:12:11;99877.36;;;38.66;28.84
76794;BME280;65745;50.278;18.192;2023-06-22T12:14:43;99877.54;;;38.96;28.10
76794;BME280;65745;50.278;18.192;2023-06-22T12:17:15;99870.86;;;38.74;26.30
76794;BME280;65745;50.278;18.192;2023-06-22T12:19:48;99872.90;;;38.55;27.66
76794;BME280;65745;50.278;18.192;2023-06-22T12:22:20;99865.74;;;38.49;27.53
76794;BME280;65745;50.278;18.192;2023-06-22T12:24:53;99862.48;;;38.86;28.13
76794;BME280;65745;50.278;18.192;2023-06-22T12:27:26;99868.49;;;39.27;27.64
76794;BME280;65745;50.278;18.192;2023-06-22T12:29:58;99868.78;;;39.43;26.88
76794;BME280;65745;50.278;18.192;2023-06-22T12:32:31;99867.48;;;39.62;27.07
76794;BME280;65745;50.278;18.192;2023-06-22T12:35:04;99868.59;;;40.03;26.57
76794;BME280;65745;50.278;18.192;2023-06-22T12:37:36;99861.64;;;40.27;25.92
76794;BME280;65745;50.278;18.192;2023-06-22T12:40:10;99861.71;;;40.19;25.44
76794;BME280;65745;50.278;18.192;2023-06-22T12:42:44;99855.42;;;40.02;25.73
76794;BME280;65745;50.278;18.192;2023-06-22T12:45:16;99848.96;;;40.08;25.10
76794;BME280;65745;50.278;18.192;2023-06-22T12:47:49;99846.26;;;40.58;25.26
76794;BME280;65745;50.278;18.192;2023-06-22T12:50:21;99843.08;;;40.83;24.70
76794;BME280;65745;50.278;18.192;2023-06-22T12:52:54;99842.95;;;40.72;25.44
76794;BME280;65745;50.278;18.192;2023-06-22T12:55:26;99836.47;;;41.02;25.05
76794;BME280;65745;50.278;18.192;2023-06-22T12:57:58;99832.96;;;41.36;24.64
76794;BME280;65745;50.278;18.192;2023-06-22T13:00:30;99835.84;;;41.59;24.38
76794;BME280;65745;50.278;18.192;2023-06-22T13:03:03;99834.05;;;41.83;24.08
76794;BME280;65745;50.278;18.192;2023-06-22T13:05:36;99827.83;;;41.54;23.86
76794;BME280;65745;50.278;18.192;2023-06-22T13:08:09;99824.98;;;41.31;24.28
76794;BME280;65745;50.278;18.192;2023-06-22T13:10:43;99819.61;;;40.87;24.46
76794;BME280;65745;50.278;18.192;2023-06-22T13:13:15;99821.66;;;40.77;24.33
76794;BME280;65745;50.278;18.192;2023-06-22T13:15:47;99814.80;;;40.85;24.54